sensor_id;sensor_type;location;lat;lon;timestamp;P1;durP1;ratioP1;P2;durP2;ratioP2
69081;SDS011;56184;51.986;5.760;2022-08-01T00:00:37;6.00;;;3.63;;
69081;SDS011;56184;51.986;5.760;2022-08-01T00:03:03;5.18;;;3.67;;
69081;SDS011;56184;51.986;5.760;2022-08-01T00:05:29;5.00;;;3.78;;
69081;SDS011;56184;51.986;5.760;2022-08-01T00:07:54;9.25;;;5.07;;
69081;SDS011;56184;51.986;5.760;2022-08-01T00:10:21;6.95;;;5.30;;
69081;SDS011;56184;51.986;5.760;2022-08-01T00:12:48;7.32;;;5.13;;
69081;SDS011;56184;51.986;5.760;2022-08-01T00:15:14;8.80;;;6.93;;
69081;SDS011;56184;51.986;5.760;2022-08-01T00:17:41;11.05;;;7.13;;
69081;SDS011;56184;51.986;5.760;2022-08-01T00:20:08;11.63;;;7.50;;
69081;SDS011;56184;51.986;5.760;2022-08-01T00:22:36;10.25;;;7.38;;
69081;SDS011;56184;51.986;5.760;2022-08-01T00:25:01;14.10;;;8.10;;
69081;SDS011;56184;51.986;5.760;2022-08-01T00:27:29;12.13;;;7.55;;
69081;SDS011;56184;51.986;5.760;2022-08-01T00:29:55;11.13;;;7.93;;
69081;SDS011;56184;51.986;5.760;2022-08-01T00:32:20;10.65;;;7.63;;
69081;SDS011;56184;51.986;5.760;2022-08-01T00:34:46;13.02;;;8.13;;
69081;SDS011;56184;51.986;5.760;2022-08-01T00:37:11;12.25;;;8.13;;
69081;SDS011;56184;51.986;5.760;2022-08-01T00:39:37;10.13;;;8.25;;
69081;SDS011;56184;51.986;5.760;2022-08-01T00:42:09;13.20;;;8.63;;
69081;SDS011;56184;51.986;5.760;2022-08-01T00:47:02;12.75;;;7.72;;
69081;SDS011;56184;51.986;5.760;2022-08-01T00:49:28;12.85;;;8.32;;
69081;SDS011;56184;51.986;5.760;2022-08-01T00:51:54;11.90;;;8.05;;
69081;SDS011;56184;51.986;5.760;2022-08-01T00:54:20;12.20;;;7.63;;
69081;SDS011;56184;51.986;5.760;2022-08-01T00:56:47;12.43;;;7.93;;
69081;SDS011;56184;51.986;5.760;2022-08-01T00:59:13;11.75;;;7.25;;
69081;SDS011;56184;51.986;5.760;2022-08-01T01:01:41;9.80;;;6.80;;
69081;SDS011;56184;51.986;5.760;2022-08-01T01:04:07;9.52;;;6.50;;
69081;SDS011;56184;51.986;5.760;2022-08-01T01:09:23;10.30;;;5.90;;
69081;SDS011;56184;51.986;5.760;2022-08-01T01:12:02;8.07;;;5.60;;
69081;SDS011;56184;51.986;5.760;2022-08-01T01:17:09;7.95;;;5.10;;
69081;SDS011;56184;51.986;5.760;2022-08-01T01:19:39;9.10;;;6.03;;
69081;SDS011;56184;51.986;5.760;2022-08-01T01:25:04;9.55;;;6.15;;
69081;SDS011;56184;51.986;5.760;2022-08-01T01:30:41;11.02;;;6.75;;
69081;SDS011;56184;51.986;5.760;2022-08-01T01:33:09;10.80;;;7.07;;
69081;SDS011;56184;51.986;5.760;2022-08-01T01:35:38;8.25;;;6.07;;
69081;SDS011;56184;51.986;5.760;2022-08-01T01:38:26;9.70;;;5.43;;
69081;SDS011;56184;51.986;5.760;2022-08-01T01:40:55;8.73;;;5.95;;
69081;SDS011;56184;51.986;5.760;2022-08-01T01:43:22;10.68;;;6.18;;
69081;SDS011;56184;51.986;5.760;2022-08-01T01:45:49;11.13;;;5.75;;
69081;SDS011;56184;51.986;5.760;2022-08-01T01:48:18;11.18;;;6.75;;
69081;SDS011;56184;51.986;5.760;2022-08-01T01:50:46;11.68;;;6.60;;
69081;SDS011;56184;51.986;5.760;2022-08-01T01:53:13;10.90;;;6.78;;
69081;SDS011;56184;51.986;5.760;2022-08-01T01:55:41;13.45;;;7.30;;
69081;SDS011;56184;51.986;5.760;2022-08-01T01:58:09;12.88;;;7.30;;
69081;SDS011;56184;51.986;5.760;2022-08-01T02:00:38;11.32;;;6.55;;
69081;SDS011;56184;51.986;5.760;2022-08-01T02:03:05;13.05;;;6.35;;
69081;SDS011;56184;51.986;5.760;2022-08-01T02:05:32;11.30;;;6.25;;
69081;SDS011;56184;51.986;5.760;2022-08-01T02:08:01;11.77;;;6.68;;
69081;SDS011;56184;51.986;5.760;2022-08-01T02:10:28;11.95;;;6.05;;
69081;SDS011;56184;51.986;5.760;2022-08-01T02:12:57;13.80;;;6.60;;
69081;SDS011;56184;51.986;5.760;2022-08-01T02:15:24;11.40;;;5.82;;
69081;SDS011;56184;51.986;5.760;2022-08-01T02:17:53;13.82;;;5.78;;
69081;SDS011;56184;51.986;5.760;2022-08-01T02:20:21;10.57;;;5.43;;
69081;SDS011;56184;51.986;5.760;2022-08-01T02:22:48;10.77;;;5.80;;
69081;SDS011;56184;51.986;5.760;2022-08-01T02:25:27;11.10;;;5.57;;
69081;SDS011;56184;51.986;5.760;2022-08-01T02:28:01;10.20;;;5.10;;
69081;SDS011;56184;51.986;5.760;2022-08-01T02:30:42;12.63;;;5.30;;
69081;SDS011;56184;51.986;5.760;2022-08-01T02:33:14;9.98;;;5.38;;
69081;SDS011;56184;51.986;5.760;2022-08-01T02:35:43;10.27;;;5.20;;
69081;SDS011;56184;51.986;5.760;2022-08-01T02:38:12;8.10;;;4.80;;
69081;SDS011;56184;51.986;5.760;2022-08-01T02:40:47;9.90;;;5.50;;
69081;SDS011;56184;51.986;5.760;2022-08-01T02:43:15;12.27;;;5.38;;
69081;SDS011;56184;51.986;5.760;2022-08-01T02:45:43;9.20;;;5.07;;
69081;SDS011;56184;51.986;5.760;2022-08-01T02:48:13;9.88;;;5.50;;
69081;SDS011;56184;51.986;5.760;2022-08-01T02:50:42;8.10;;;5.60;;
69081;SDS011;56184;51.986;5.760;2022-08-01T02:53:09;13.48;;;5.43;;
69081;SDS011;56184;51.986;5.760;2022-08-01T02:55:51;8.50;;;5.50;;
69081;SDS011;56184;51.986;5.760;2022-08-01T02:58:18;9.73;;;6.45;;
69081;SDS011;56184;51.986;5.760;2022-08-01T03:00:48;10.60;;;6.15;;
69081;SDS011;56184;51.986;5.760;2022-08-01T03:03:14;11.40;;;6.03;;
69081;SDS011;56184;51.986;5.760;2022-08-01T03:05:43;10.27;;;5.57;;
69081;SDS011;56184;51.986;5.760;2022-08-01T03:08:09;12.40;;;6.10;;
69081;SDS011;56184;51.986;5.760;2022-08-01T03:10:36;10.93;;;6.38;;
69081;SDS011;56184;51.986;5.760;2022-08-01T03:13:04;8.68;;;5.50;;
69081;SDS011;56184;51.986;5.760;2022-08-01T03:15:35;12.68;;;5.70;;
69081;SDS011;56184;51.986;5.760;2022-08-01T03:18:02;10.25;;;6.18;;
69081;SDS011;56184;51.986;5.760;2022-08-01T03:20:32;8.48;;;5.60;;
69081;SDS011;56184;51.986;5.760;2022-08-01T03:22:59;12.10;;;6.10;;
69081;SDS011;56184;51.986;5.760;2022-08-01T03:25:29;8.73;;;5.63;;
69081;SDS011;56184;51.986;5.760;2022-08-01T03:27:58;9.27;;;5.47;;
69081;SDS011;56184;51.986;5.760;2022-08-01T03:30:26;7.35;;;5.35;;
69081;SDS011;56184;51.986;5.760;2022-08-01T03:32:52;10.02;;;5.43;;
69081;SDS011;56184;51.986;5.760;2022-08-01T03:35:18;12.68;;;5.78;;
69081;SDS011;56184;51.986;5.760;2022-08-01T03:37:46;7.93;;;5.20;;
69081;SDS011;56184;51.986;5.760;2022-08-01T03:40:24;7.85;;;4.80;;
69081;SDS011;56184;51.986;5.760;2022-08-01T03:42:59;10.77;;;6.07;;
69081;SDS011;56184;51.986;5.760;2022-08-01T03:45:31;11.13;;;5.60;;
69081;SDS011;56184;51.986;5.760;2022-08-01T03:48:01;7.97;;;5.20;;
69081;SDS011;56184;51.986;5.760;2022-08-01T03:50:31;11.48;;;5.57;;
69081;SDS011;56184;51.986;5.760;2022-08-01T03:53:00;6.90;;;4.80;;
69081;SDS011;56184;51.986;5.760;2022-08-01T03:55:27;10.55;;;5.22;;
69081;SDS011;56184;51.986;5.760;2022-08-01T03:57:54;11.07;;;5.30;;
69081;SDS011;56184;51.986;5.760;2022-08-01T04:00:24;10.18;;;5.07;;
69081;SDS011;56184;51.986;5.760;2022-08-01T04:02:52;8.23;;;5.10;;
69081;SDS011;56184;51.986;5.760;2022-08-01T04:05:18;8.55;;;5.20;;
69081;SDS011;56184;51.986;5.760;2022-08-01T04:07:47;10.27;;;5.65;;
69081;SDS011;56184;51.986;5.760;2022-08-01T04:10:24;6.13;;;4.18;;
69081;SDS011;56184;51.986;5.760;2022-08-01T04:12:50;10.70;;;5.20;;
69081;SDS011;56184;51.986;5.760;2022-08-01T04:15:16;8.18;;;5.20;;
69081;SDS011;56184;51.986;5.760;2022-08-01T04:17:42;8.27;;;5.32;;
69081;SDS011;56184;51.986;5.760;2022-08-01T04:20:08;9.88;;;5.55;;
69081;SDS011;56184;51.986;5.760;2022-08-01T04:22:34;12.10;;;5.97;;
69081;SDS011;56184;51.986;5.760;2022-08-01T04:25:02;8.57;;;5.70;;
69081;SDS011;56184;51.986;5.760;2022-08-01T04:27:35;12.47;;;6.50;;
69081;SDS011;56184;51.986;5.760;2022-08-01T04:30:02;8.82;;;5.60;;
69081;SDS011;56184;51.986;5.760;2022-08-01T04:32:29;8.95;;;5.30;;
69081;SDS011;56184;51.986;5.760;2022-08-01T04:35:01;9.35;;;6.07;;
69081;SDS011;56184;51.986;5.760;2022-08-01T04:37:30;12.23;;;5.93;;
69081;SDS011;56184;51.986;5.760;2022-08-01T04:39:56;8.88;;;5.88;;
69081;SDS011;56184;51.986;5.760;2022-08-01T04:42:24;8.15;;;5.72;;
69081;SDS011;56184;51.986;5.760;2022-08-01T04:44:50;9.32;;;5.65;;
69081;SDS011;56184;51.986;5.760;2022-08-01T04:47:16;9.13;;;5.80;;
69081;SDS011;56184;51.986;5.760;2022-08-01T04:49:42;9.40;;;6.00;;
69081;SDS011;56184;51.986;5.760;2022-08-01T04:52:10;11.80;;;5.50;;
69081;SDS011;56184;51.986;5.760;2022-08-01T04:54:36;9.95;;;5.70;;
69081;SDS011;56184;51.986;5.760;2022-08-01T04:57:02;9.52;;;5.30;;
69081;SDS011;56184;51.986;5.760;2022-08-01T04:59:29;9.10;;;5.07;;
69081;SDS011;56184;51.986;5.760;2022-08-01T05:02:06;6.53;;;4.53;;
69081;SDS011;56184;51.986;5.760;2022-08-01T05:04:43;5.72;;;4.18;;
69081;SDS011;56184;51.986;5.760;2022-08-01T05:07:09;7.43;;;4.65;;
69081;SDS011;56184;51.986;5.760;2022-08-01T05:09:36;5.35;;;3.92;;
69081;SDS011;56184;51.986;5.760;2022-08-01T05:12:03;7.13;;;4.13;;
69081;SDS011;56184;51.986;5.760;2022-08-01T05:14:30;7.82;;;4.13;;
69081;SDS011;56184;51.986;5.760;2022-08-01T05:17:00;6.18;;;4.07;;
69081;SDS011;56184;51.986;5.760;2022-08-01T05:19:32;7.63;;;4.20;;
69081;SDS011;56184;51.986;5.760;2022-08-01T05:21:59;8.35;;;4.35;;
69081;SDS011;56184;51.986;5.760;2022-08-01T05:24:33;9.65;;;4.60;;
69081;SDS011;56184;51.986;5.760;2022-08-01T05:27:00;7.97;;;3.80;;
69081;SDS011;56184;51.986;5.760;2022-08-01T05:29:26;6.10;;;3.90;;
69081;SDS011;56184;51.986;5.760;2022-08-01T05:31:52;5.90;;;4.05;;
69081;SDS011;56184;51.986;5.760;2022-08-01T05:34:18;6.40;;;3.80;;
69081;SDS011;56184;51.986;5.760;2022-08-01T05:36:44;8.45;;;3.90;;
69081;SDS011;56184;51.986;5.760;2022-08-01T05:39:09;4.90;;;3.78;;
69081;SDS011;56184;51.986;5.760;2022-08-01T05:41:35;7.47;;;3.40;;
69081;SDS011;56184;51.986;5.760;2022-08-01T05:44:02;5.63;;;3.67;;
69081;SDS011;56184;51.986;5.760;2022-08-01T05:46:28;4.90;;;3.60;;
69081;SDS011;56184;51.986;5.760;2022-08-01T05:48:55;7.65;;;4.03;;
69081;SDS011;56184;51.986;5.760;2022-08-01T05:51:21;4.10;;;3.40;;
69081;SDS011;56184;51.986;5.760;2022-08-01T05:53:47;4.90;;;2.70;;
69081;SDS011;56184;51.986;5.760;2022-08-01T05:56:13;5.13;;;2.72;;
69081;SDS011;56184;51.986;5.760;2022-08-01T05:58:38;4.53;;;2.50;;
69081;SDS011;56184;51.986;5.760;2022-08-01T06:01:04;3.92;;;2.20;;
69081;SDS011;56184;51.986;5.760;2022-08-01T06:03:29;1.83;;;1.73;;
69081;SDS011;56184;51.986;5.760;2022-08-01T06:05:57;2.25;;;1.80;;
69081;SDS011;56184;51.986;5.760;2022-08-01T06:08:22;3.17;;;1.58;;
69081;SDS011;56184;51.986;5.760;2022-08-01T06:10:48;1.83;;;1.40;;
69081;SDS011;56184;51.986;5.760;2022-08-01T06:13:14;1.42;;;1.33;;
69081;SDS011;56184;51.986;5.760;2022-08-01T06:15:40;2.30;;;1.17;;
69081;SDS011;56184;51.986;5.760;2022-08-01T06:18:05;2.25;;;1.13;;
69081;SDS011;56184;51.986;5.760;2022-08-01T06:20:31;2.42;;;1.20;;
69081;SDS011;56184;51.986;5.760;2022-08-01T06:22:57;1.92;;;1.00;;
69081;SDS011;56184;51.986;5.760;2022-08-01T06:25:23;1.45;;;1.00;;
69081;SDS011;56184;51.986;5.760;2022-08-01T06:27:48;1.10;;;1.00;;
69081;SDS011;56184;51.986;5.760;2022-08-01T06:30:14;1.10;;;1.00;;
69081;SDS011;56184;51.986;5.760;2022-08-01T06:32:40;2.47;;;0.90;;
69081;SDS011;56184;51.986;5.760;2022-08-01T06:35:06;2.10;;;1.02;;
69081;SDS011;56184;51.986;5.760;2022-08-01T06:37:32;1.38;;;0.90;;
69081;SDS011;56184;51.986;5.760;2022-08-01T06:40:04;1.15;;;0.80;;
69081;SDS011;56184;51.986;5.760;2022-08-01T06:42:32;1.35;;;0.80;;
69081;SDS011;56184;51.986;5.760;2022-08-01T06:45:03;0.80;;;0.77;;
69081;SDS011;56184;51.986;5.760;2022-08-01T06:47:29;1.88;;;0.90;;
69081;SDS011;56184;51.986;5.760;2022-08-01T06:49:55;5.72;;;1.05;;
69081;SDS011;56184;51.986;5.760;2022-08-01T06:52:21;1.38;;;1.00;;
69081;SDS011;56184;51.986;5.760;2022-08-01T06:54:46;1.50;;;1.00;;
69081;SDS011;56184;51.986;5.760;2022-08-01T06:57:12;0.93;;;0.88;;
69081;SDS011;56184;51.986;5.760;2022-08-01T06:59:37;1.63;;;0.85;;
69081;SDS011;56184;51.986;5.760;2022-08-01T07:02:03;1.77;;;0.70;;
69081;SDS011;56184;51.986;5.760;2022-08-01T07:04:29;1.50;;;1.00;;
69081;SDS011;56184;51.986;5.760;2022-08-01T07:06:55;0.98;;;0.80;;
69081;SDS011;56184;51.986;5.760;2022-08-01T07:09:20;3.35;;;0.98;;
69081;SDS011;56184;51.986;5.760;2022-08-01T07:11:46;1.10;;;0.98;;
69081;SDS011;56184;51.986;5.760;2022-08-01T07:14:12;1.42;;;0.90;;
69081;SDS011;56184;51.986;5.760;2022-08-01T07:16:37;0.80;;;0.80;;
69081;SDS011;56184;51.986;5.760;2022-08-01T07:19:03;1.38;;;0.90;;
69081;SDS011;56184;51.986;5.760;2022-08-01T07:21:30;1.40;;;1.00;;
69081;SDS011;56184;51.986;5.760;2022-08-01T07:23:55;2.85;;;0.90;;
69081;SDS011;56184;51.986;5.760;2022-08-01T07:26:21;1.33;;;0.88;;
69081;SDS011;56184;51.986;5.760;2022-08-01T07:28:46;1.67;;;1.02;;
69081;SDS011;56184;51.986;5.760;2022-08-01T07:31:12;1.38;;;1.00;;
69081;SDS011;56184;51.986;5.760;2022-08-01T07:33:37;1.92;;;1.05;;
69081;SDS011;56184;51.986;5.760;2022-08-01T07:36:03;2.55;;;1.00;;
69081;SDS011;56184;51.986;5.760;2022-08-01T07:38:29;1.77;;;1.00;;
69081;SDS011;56184;51.986;5.760;2022-08-01T07:40:54;1.20;;;1.00;;
69081;SDS011;56184;51.986;5.760;2022-08-01T07:43:20;0.90;;;0.82;;
69081;SDS011;56184;51.986;5.760;2022-08-01T07:45:46;4.93;;;1.30;;
69081;SDS011;56184;51.986;5.760;2022-08-01T07:48:11;1.63;;;1.10;;
69081;SDS011;56184;51.986;5.760;2022-08-01T07:50:37;1.48;;;1.00;;
69081;SDS011;56184;51.986;5.760;2022-08-01T07:55:37;1.55;;;1.30;;
69081;SDS011;56184;51.986;5.760;2022-08-01T07:58:02;2.40;;;1.10;;
69081;SDS011;56184;51.986;5.760;2022-08-01T08:00:28;4.07;;;1.20;;
69081;SDS011;56184;51.986;5.760;2022-08-01T08:02:54;1.20;;;1.10;;
69081;SDS011;56184;51.986;5.760;2022-08-01T08:05:20;1.25;;;1.00;;
69081;SDS011;56184;51.986;5.760;2022-08-01T08:07:45;1.90;;;1.10;;
69081;SDS011;56184;51.986;5.760;2022-08-01T08:10:11;1.83;;;1.10;;
69081;SDS011;56184;51.986;5.760;2022-08-01T08:12:37;2.17;;;1.20;;
69081;SDS011;56184;51.986;5.760;2022-08-01T08:15:02;2.13;;;0.98;;
69081;SDS011;56184;51.986;5.760;2022-08-01T08:17:30;2.00;;;1.00;;
69081;SDS011;56184;51.986;5.760;2022-08-01T08:19:57;2.28;;;1.23;;
69081;SDS011;56184;51.986;5.760;2022-08-01T08:22:22;3.40;;;1.30;;
69081;SDS011;56184;51.986;5.760;2022-08-01T08:24:48;2.83;;;1.20;;
69081;SDS011;56184;51.986;5.760;2022-08-01T08:27:14;2.50;;;1.10;;
69081;SDS011;56184;51.986;5.760;2022-08-01T08:29:41;2.30;;;1.10;;
69081;SDS011;56184;51.986;5.760;2022-08-01T08:32:07;2.25;;;1.00;;
69081;SDS011;56184;51.986;5.760;2022-08-01T08:34:32;1.00;;;0.90;;
69081;SDS011;56184;51.986;5.760;2022-08-01T08:36:59;1.58;;;0.80;;
69081;SDS011;56184;51.986;5.760;2022-08-01T08:39:25;1.35;;;1.23;;
69081;SDS011;56184;51.986;5.760;2022-08-01T08:41:51;1.17;;;1.05;;
69081;SDS011;56184;51.986;5.760;2022-08-01T08:44:18;1.55;;;1.00;;
69081;SDS011;56184;51.986;5.760;2022-08-01T08:46:49;2.30;;;1.10;;
69081;SDS011;56184;51.986;5.760;2022-08-01T08:49:18;1.85;;;1.10;;
69081;SDS011;56184;51.986;5.760;2022-08-01T08:51:48;2.10;;;1.10;;
69081;SDS011;56184;51.986;5.760;2022-08-01T08:54:15;1.77;;;1.10;;
69081;SDS011;56184;51.986;5.760;2022-08-01T08:56:43;2.83;;;1.10;;
69081;SDS011;56184;51.986;5.760;2022-08-01T08:59:11;1.48;;;1.00;;
69081;SDS011;56184;51.986;5.760;2022-08-01T09:01:38;3.30;;;1.13;;
69081;SDS011;56184;51.986;5.760;2022-08-01T09:04:04;1.35;;;1.00;;
69081;SDS011;56184;51.986;5.760;2022-08-01T09:06:30;2.38;;;1.20;;
69081;SDS011;56184;51.986;5.760;2022-08-01T09:08:57;2.13;;;1.30;;
69081;SDS011;56184;51.986;5.760;2022-08-01T09:11:23;3.35;;;1.38;;
69081;SDS011;56184;51.986;5.760;2022-08-01T09:14:02;2.50;;;1.60;;
69081;SDS011;56184;51.986;5.760;2022-08-01T09:16:36;3.97;;;1.40;;
69081;SDS011;56184;51.986;5.760;2022-08-01T09:19:08;2.85;;;1.40;;
69081;SDS011;56184;51.986;5.760;2022-08-01T09:21:34;5.03;;;1.52;;
69081;SDS011;56184;51.986;5.760;2022-08-01T09:24:00;4.00;;;1.70;;
69081;SDS011;56184;51.986;5.760;2022-08-01T09:26:31;4.80;;;1.42;;
69081;SDS011;56184;51.986;5.760;2022-08-01T09:28:58;5.30;;;1.70;;
69081;SDS011;56184;51.986;5.760;2022-08-01T09:31:27;3.72;;;1.20;;
69081;SDS011;56184;51.986;5.760;2022-08-01T09:33:58;5.18;;;1.75;;
69081;SDS011;56184;51.986;5.760;2022-08-01T09:36:42;5.80;;;1.88;;
69081;SDS011;56184;51.986;5.760;2022-08-01T09:39:36;4.93;;;2.08;;
69081;SDS011;56184;51.986;5.760;2022-08-01T09:44:46;5.22;;;1.70;;
69081;SDS011;56184;51.986;5.760;2022-08-01T09:47:12;7.60;;;1.80;;
69081;SDS011;56184;51.986;5.760;2022-08-01T09:49:39;7.63;;;1.90;;
69081;SDS011;56184;51.986;5.760;2022-08-01T09:52:13;5.55;;;1.92;;
69081;SDS011;56184;51.986;5.760;2022-08-01T09:54:40;6.22;;;1.80;;
69081;SDS011;56184;51.986;5.760;2022-08-01T09:57:11;5.60;;;1.70;;
69081;SDS011;56184;51.986;5.760;2022-08-01T09:59:46;5.13;;;1.90;;
69081;SDS011;56184;51.986;5.760;2022-08-01T10:02:14;5.93;;;1.75;;
69081;SDS011;56184;51.986;5.760;2022-08-01T10:05:02;7.95;;;2.08;;
69081;SDS011;56184;51.986;5.760;2022-08-01T10:07:29;5.22;;;1.60;;
69081;SDS011;56184;51.986;5.760;2022-08-01T10:09:54;10.55;;;2.03;;
69081;SDS011;56184;51.986;5.760;2022-08-01T10:12:21;9.18;;;2.03;;
69081;SDS011;56184;51.986;5.760;2022-08-01T10:14:49;10.32;;;2.38;;
69081;SDS011;56184;51.986;5.760;2022-08-01T10:17:17;9.48;;;2.05;;
69081;SDS011;56184;51.986;5.760;2022-08-01T10:19:44;7.20;;;1.80;;
69081;SDS011;56184;51.986;5.760;2022-08-01T10:22:12;10.27;;;2.00;;
69081;SDS011;56184;51.986;5.760;2022-08-01T10:24:41;6.32;;;1.80;;
69081;SDS011;56184;51.986;5.760;2022-08-01T10:27:09;5.88;;;1.92;;
69081;SDS011;56184;51.986;5.760;2022-08-01T10:29:46;7.45;;;1.75;;
69081;SDS011;56184;51.986;5.760;2022-08-01T10:32:14;7.07;;;1.80;;
69081;SDS011;56184;51.986;5.760;2022-08-01T10:34:42;9.50;;;2.08;;
69081;SDS011;56184;51.986;5.760;2022-08-01T10:37:07;10.43;;;2.35;;
69081;SDS011;56184;51.986;5.760;2022-08-01T10:39:34;8.90;;;1.80;;
69081;SDS011;56184;51.986;5.760;2022-08-01T10:42:00;5.65;;;1.75;;
69081;SDS011;56184;51.986;5.760;2022-08-01T10:44:28;6.55;;;1.73;;
69081;SDS011;56184;51.986;5.760;2022-08-01T10:47:12;8.70;;;1.67;;
69081;SDS011;56184;51.986;5.760;2022-08-01T10:50:02;5.60;;;1.80;;
69081;SDS011;56184;51.986;5.760;2022-08-01T10:52:36;9.95;;;1.88;;
69081;SDS011;56184;51.986;5.760;2022-08-01T10:55:08;6.57;;;1.95;;
69081;SDS011;56184;51.986;5.760;2022-08-01T10:57:43;7.38;;;1.90;;
69081;SDS011;56184;51.986;5.760;2022-08-01T11:00:10;5.25;;;1.80;;
69081;SDS011;56184;51.986;5.760;2022-08-01T11:02:42;7.95;;;2.05;;
69081;SDS011;56184;51.986;5.760;2022-08-01T11:05:26;5.25;;;1.95;;
69081;SDS011;56184;51.986;5.760;2022-08-01T11:07:55;6.55;;;1.75;;
69081;SDS011;56184;51.986;5.760;2022-08-01T11:13:05;5.32;;;1.90;;
69081;SDS011;56184;51.986;5.760;2022-08-01T11:15:36;8.73;;;1.95;;
69081;SDS011;56184;51.986;5.760;2022-08-01T11:18:03;7.22;;;1.60;;
69081;SDS011;56184;51.986;5.760;2022-08-01T11:20:56;6.53;;;1.83;;
69081;SDS011;56184;51.986;5.760;2022-08-01T11:23:24;6.05;;;1.80;;
69081;SDS011;56184;51.986;5.760;2022-08-01T11:28:21;4.00;;;1.40;;
69081;SDS011;56184;51.986;5.760;2022-08-01T11:31:24;9.43;;;1.75;;
69081;SDS011;56184;51.986;5.760;2022-08-01T11:36:16;5.05;;;1.73;;
69081;SDS011;56184;51.986;5.760;2022-08-01T11:38:43;8.57;;;1.70;;
69081;SDS011;56184;51.986;5.760;2022-08-01T11:41:16;7.03;;;1.63;;
69081;SDS011;56184;51.986;5.760;2022-08-01T11:46:44;7.63;;;1.77;;
69081;SDS011;56184;51.986;5.760;2022-08-01T11:49:30;6.15;;;1.50;;
69081;SDS011;56184;51.986;5.760;2022-08-01T11:54:49;7.53;;;1.90;;
69081;SDS011;56184;51.986;5.760;2022-08-01T11:57:21;6.95;;;1.92;;
69081;SDS011;56184;51.986;5.760;2022-08-01T12:00:00;8.20;;;1.60;;
69081;SDS011;56184;51.986;5.760;2022-08-01T12:02:34;4.97;;;1.40;;
69081;SDS011;56184;51.986;5.760;2022-08-01T12:07:33;5.68;;;1.50;;
69081;SDS011;56184;51.986;5.760;2022-08-01T12:10:07;5.53;;;1.30;;
69081;SDS011;56184;51.986;5.760;2022-08-01T12:12:36;7.72;;;1.80;;
69081;SDS011;56184;51.986;5.760;2022-08-01T12:15:07;7.22;;;1.60;;
69081;SDS011;56184;51.986;5.760;2022-08-01T12:17:35;7.32;;;1.90;;
69081;SDS011;56184;51.986;5.760;2022-08-01T12:20:03;6.70;;;1.50;;
69081;SDS011;56184;51.986;5.760;2022-08-01T12:22:31;5.93;;;1.55;;
69081;SDS011;56184;51.986;5.760;2022-08-01T12:25:04;11.77;;;1.67;;
69081;SDS011;56184;51.986;5.760;2022-08-01T12:27:34;7.50;;;1.90;;
69081;SDS011;56184;51.986;5.760;2022-08-01T12:30:00;6.28;;;1.90;;
69081;SDS011;56184;51.986;5.760;2022-08-01T12:32:31;8.20;;;1.40;;
69081;SDS011;56184;51.986;5.760;2022-08-01T12:37:40;4.28;;;1.35;;
69081;SDS011;56184;51.986;5.760;2022-08-01T12:42:42;6.03;;;1.50;;
69081;SDS011;56184;51.986;5.760;2022-08-01T12:45:09;7.03;;;1.70;;
69081;SDS011;56184;51.986;5.760;2022-08-01T12:47:37;6.65;;;1.55;;
69081;SDS011;56184;51.986;5.760;2022-08-01T12:50:07;8.95;;;1.58;;
69081;SDS011;56184;51.986;5.760;2022-08-01T12:52:39;6.90;;;1.40;;
69081;SDS011;56184;51.986;5.760;2022-08-01T12:55:06;5.57;;;1.20;;
69081;SDS011;56184;51.986;5.760;2022-08-01T12:57:38;4.50;;;1.40;;
69081;SDS011;56184;51.986;5.760;2022-08-01T13:00:10;5.20;;;1.40;;
69081;SDS011;56184;51.986;5.760;2022-08-01T13:02:38;6.22;;;1.55;;
69081;SDS011;56184;51.986;5.760;2022-08-01T13:05:04;5.43;;;1.40;;
69081;SDS011;56184;51.986;5.760;2022-08-01T13:07:35;7.93;;;1.58;;
69081;SDS011;56184;51.986;5.760;2022-08-01T13:10:01;5.35;;;1.30;;
69081;SDS011;56184;51.986;5.760;2022-08-01T13:12:27;6.80;;;1.48;;
69081;SDS011;56184;51.986;5.760;2022-08-01T13:14:52;6.00;;;1.30;;
69081;SDS011;56184;51.986;5.760;2022-08-01T13:17:31;6.15;;;1.40;;
69081;SDS011;56184;51.986;5.760;2022-08-01T13:19:57;7.85;;;1.30;;
69081;SDS011;56184;51.986;5.760;2022-08-01T13:22:31;4.80;;;1.20;;
69081;SDS011;56184;51.986;5.760;2022-08-01T13:25:12;4.35;;;1.30;;
69081;SDS011;56184;51.986;5.760;2022-08-01T13:27:38;5.57;;;1.13;;
69081;SDS011;56184;51.986;5.760;2022-08-01T13:30:37;3.88;;;1.10;;
69081;SDS011;56184;51.986;5.760;2022-08-01T13:32:59;4.15;;;1.50;;
69081;SDS011;56184;51.986;5.760;2022-08-01T13:35:25;5.07;;;1.40;;
69081;SDS011;56184;51.986;5.760;2022-08-01T13:37:51;3.88;;;1.20;;
69081;SDS011;56184;51.986;5.760;2022-08-01T13:40:24;4.50;;;1.23;;
69081;SDS011;56184;51.986;5.760;2022-08-01T13:42:52;5.93;;;1.25;;
69081;SDS011;56184;51.986;5.760;2022-08-01T13:45:19;4.85;;;1.35;;
69081;SDS011;56184;51.986;5.760;2022-08-01T13:47:45;5.03;;;1.15;;
69081;SDS011;56184;51.986;5.760;2022-08-01T13:50:11;3.85;;;1.10;;
69081;SDS011;56184;51.986;5.760;2022-08-01T13:52:36;4.03;;;1.33;;
69081;SDS011;56184;51.986;5.760;2022-08-01T13:55:02;4.90;;;1.17;;
69081;SDS011;56184;51.986;5.760;2022-08-01T13:57:28;2.92;;;0.98;;
69081;SDS011;56184;51.986;5.760;2022-08-01T13:59:54;7.15;;;1.33;;
69081;SDS011;56184;51.986;5.760;2022-08-01T14:02:20;3.70;;;1.42;;
69081;SDS011;56184;51.986;5.760;2022-08-01T14:04:45;3.50;;;1.30;;
69081;SDS011;56184;51.986;5.760;2022-08-01T14:07:11;3.63;;;1.23;;
69081;SDS011;56184;51.986;5.760;2022-08-01T14:09:37;3.08;;;1.10;;
69081;SDS011;56184;51.986;5.760;2022-08-01T14:12:03;12.20;;;1.35;;
69081;SDS011;56184;51.986;5.760;2022-08-01T14:14:29;2.63;;;1.13;;
69081;SDS011;56184;51.986;5.760;2022-08-01T14:16:55;5.32;;;1.20;;
69081;SDS011;56184;51.986;5.760;2022-08-01T14:19:21;2.38;;;0.90;;
69081;SDS011;56184;51.986;5.760;2022-08-01T14:21:47;4.88;;;1.13;;
69081;SDS011;56184;51.986;5.760;2022-08-01T14:24:14;4.50;;;1.20;;
69081;SDS011;56184;51.986;5.760;2022-08-01T14:26:39;3.47;;;1.02;;
69081;SDS011;56184;51.986;5.760;2022-08-01T14:29:05;4.32;;;1.20;;
69081;SDS011;56184;51.986;5.760;2022-08-01T14:31:30;5.75;;;1.23;;
69081;SDS011;56184;51.986;5.760;2022-08-01T14:33:56;3.15;;;0.85;;
69081;SDS011;56184;51.986;5.760;2022-08-01T14:36:22;3.85;;;1.10;;
69081;SDS011;56184;51.986;5.760;2022-08-01T14:38:48;3.00;;;1.10;;
69081;SDS011;56184;51.986;5.760;2022-08-01T14:41:13;5.57;;;1.30;;
69081;SDS011;56184;51.986;5.760;2022-08-01T14:43:40;7.40;;;1.23;;
69081;SDS011;56184;51.986;5.760;2022-08-01T14:46:05;6.03;;;1.05;;
69081;SDS011;56184;51.986;5.760;2022-08-01T14:48:32;5.45;;;1.15;;
69081;SDS011;56184;51.986;5.760;2022-08-01T14:50:59;3.95;;;1.10;;
69081;SDS011;56184;51.986;5.760;2022-08-01T14:53:28;2.95;;;0.80;;
69081;SDS011;56184;51.986;5.760;2022-08-01T14:55:53;2.38;;;0.70;;
69081;SDS011;56184;51.986;5.760;2022-08-01T14:58:19;2.05;;;0.80;;
69081;SDS011;56184;51.986;5.760;2022-08-01T15:00:45;3.00;;;0.98;;
69081;SDS011;56184;51.986;5.760;2022-08-01T15:03:10;4.15;;;0.90;;
69081;SDS011;56184;51.986;5.760;2022-08-01T15:05:36;1.27;;;0.65;;
69081;SDS011;56184;51.986;5.760;2022-08-01T15:08:03;3.25;;;0.80;;
69081;SDS011;56184;51.986;5.760;2022-08-01T15:10:31;5.00;;;0.77;;
69081;SDS011;56184;51.986;5.760;2022-08-01T15:12:57;3.22;;;0.93;;
69081;SDS011;56184;51.986;5.760;2022-08-01T15:15:24;2.33;;;0.68;;
69081;SDS011;56184;51.986;5.760;2022-08-01T15:17:51;2.42;;;0.63;;
69081;SDS011;56184;51.986;5.760;2022-08-01T15:20:17;1.92;;;0.90;;
69081;SDS011;56184;51.986;5.760;2022-08-01T15:22:43;4.57;;;0.80;;
69081;SDS011;56184;51.986;5.760;2022-08-01T15:25:09;2.28;;;0.93;;
69081;SDS011;56184;51.986;5.760;2022-08-01T15:27:35;4.07;;;0.80;;
69081;SDS011;56184;51.986;5.760;2022-08-01T15:30:00;1.33;;;0.70;;
69081;SDS011;56184;51.986;5.760;2022-08-01T15:32:27;1.67;;;0.80;;